createdAt,value
2023-04-15T00:02:26.143Z,101965.06
2023-04-15T00:04:54.357Z,101963.38
2023-04-15T00:07:22.353Z,101963.38
2023-04-15T00:09:55.144Z,101977.06
2023-04-15T00:12:23.379Z,101960.47
2023-04-15T00:14:51.227Z,101935.88
2023-04-15T00:17:19.177Z,101974.22
2023-04-15T00:19:47.533Z,101973.31
2023-04-15T00:22:16.120Z,101982.78
2023-04-15T00:24:44.202Z,101986.28
2023-04-15T00:27:13.719Z,101988.75
2023-04-15T00:29:41.939Z,101987.84
2023-04-15T00:32:09.829Z,101976.56
2023-04-15T00:34:38.022Z,101944.06
2023-04-15T00:37:05.873Z,101926.59
2023-04-15T00:39:34.134Z,101984.34
2023-04-15T00:42:02.446Z,101976.56
2023-04-15T00:44:31.744Z,101959.22
2023-04-15T00:47:00.296Z,101980.72
2023-04-15T00:49:29.222Z,101982.53
2023-04-15T00:51:57.160Z,101974.31
2023-04-15T00:54:25.015Z,101988.50
2023-04-15T00:56:53.130Z,101980.72
2023-04-15T00:59:22.521Z,101957.53
2023-04-15T01:01:52.296Z,101973.88
2023-04-15T01:04:20.564Z,101984.22
2023-04-15T01:06:48.450Z,101888.34
2023-04-15T01:09:16.373Z,101971.41
2023-04-15T01:11:44.928Z,101899.75
2023-04-15T01:14:13.046Z,101981.09
2023-04-15T01:16:41.197Z,101978.75
2023-04-15T01:19:12.784Z,101982.22
2023-04-15T01:21:41.030Z,101984.16
2023-04-15T01:24:12.097Z,101904.88
2023-04-15T01:26:44.527Z,101964.78
2023-04-15T01:29:13.208Z,101981.38
2023-04-15T01:31:41.101Z,101978.00
2023-04-15T01:34:09.094Z,101979.13
2023-04-15T01:36:37.449Z,101976.78
2023-04-15T01:39:05.731Z,101930.31
2023-04-15T01:41:33.918Z,101975.31
2023-04-15T01:44:03.273Z,101983.22
2023-04-15T01:46:31.414Z,101942.06
2023-04-15T01:48:59.718Z,101974.91
2023-04-15T01:51:28.417Z,101915.81
2023-04-15T01:53:56.959Z,101979.63
2023-04-15T01:56:25.578Z,101973.78
2023-04-15T01:58:53.651Z,101892.38
2023-04-15T02:01:23.434Z,101910.31
2023-04-15T02:03:51.528Z,101990.81
2023-04-15T02:06:19.658Z,101977.19
2023-04-15T02:08:47.575Z,101898.03
2023-04-15T02:11:15.650Z,101981.03
2023-04-15T02:13:43.678Z,101976.88
2023-04-15T02:16:17.973Z,101976.31
2023-04-15T02:18:48.049Z,101983.31
2023-04-15T02:21:15.988Z,101964.34
2023-04-15T02:23:44.177Z,101962.78
2023-04-15T02:26:12.097Z,101976.09
2023-04-15T02:28:39.930Z,101985.00
2023-04-15T02:31:08.382Z,101991.88
2023-04-15T02:33:37.080Z,101915.75
2023-04-15T02:36:07.606Z,101963.69
2023-04-15T02:38:35.671Z,101894.22
2023-04-15T02:41:03.661Z,101979.25
2023-04-15T02:43:31.713Z,101961.09
2023-04-15T02:45:59.836Z,101991.66
2023-04-15T02:48:27.841Z,101982.19
2023-04-15T02:50:55.710Z,101983.22
2023-04-15T02:53:26.172Z,101990.31
2023-04-15T02:55:54.115Z,101972.16
2023-04-15T02:58:21.958Z,101981.28
2023-04-15T03:00:52.134Z,101975.31
2023-04-15T03:03:20.412Z,101989.09
2023-04-15T03:05:48.324Z,101982.53
2023-04-15T03:08:16.782Z,101999.69
2023-04-15T03:10:46.076Z,101926.72
2023-04-15T03:13:14.033Z,101995.50
2023-04-15T03:15:42.237Z,101998.22
2023-04-15T03:18:10.407Z,101997.44
2023-04-15T03:20:38.281Z,102000.03
2023-04-15T03:23:06.266Z,102004.53
2023-04-15T03:25:34.168Z,101995.97
2023-04-15T03:28:03.404Z,102000.25
2023-04-15T03:30:31.671Z,101993.47
2023-04-15T03:32:59.805Z,101994.16
2023-04-15T03:35:27.711Z,101982.44
2023-04-15T03:37:55.848Z,101999.47
2023-04-15T03:40:23.925Z,102002.97
2023-04-15T03:42:51.779Z,101997.78
2023-04-15T03:45:21.067Z,102009.94
2023-04-15T03:47:49.910Z,102012.66
2023-04-15T03:50:17.902Z,101993.81
2023-04-15T03:52:45.927Z,101980.63
2023-04-15T03:55:14.712Z,101950.50
2023-04-15T03:57:42.590Z,102012.09
2023-04-15T04:00:11.209Z,102013.13
2023-04-15T04:02:40.982Z,102003.63
2023-04-15T04:05:09.746Z,102008.81
2023-04-15T04:07:37.628Z,102005.09
2023-04-15T04:10:06.114Z,102020.34
2023-04-15T04:12:33.969Z,102017.06
2023-04-15T04:15:01.871Z,102010.28
2023-04-15T04:17:29.923Z,101955.38
2023-04-15T04:19:59.140Z,102014.00
2023-04-15T04:22:27.059Z,102015.94
2023-04-15T04:24:55.067Z,102019.66
2023-04-15T04:27:22.928Z,102022.59
2023-04-15T04:29:51.034Z,101979.03
2023-04-15T04:32:19.090Z,101975.00
2023-04-15T04:34:47.246Z,102028.56
2023-04-15T04:37:16.845Z,102033.97
2023-04-15T04:39:44.866Z,102037.56
2023-04-15T04:42:12.701Z,102034.97
2023-04-15T04:44:40.848Z,102038.38
2023-04-15T04:47:08.846Z,102044.34
2023-04-15T04:49:36.927Z,102011.06
2023-04-15T04:52:04.874Z,102039.72
2023-04-15T04:54:34.638Z,102046.59
2023-04-15T04:57:02.525Z,102045.47
2023-04-15T04:59:30.436Z,102041.97
2023-04-15T05:01:58.606Z,102046.28
2023-04-15T05:04:26.526Z,101980.41
2023-04-15T05:06:54.608Z,102047.06
2023-04-15T05:09:22.580Z,102046.28
2023-04-15T05:11:51.938Z,102049.78
2023-04-15T05:14:20.789Z,102009.94
2023-04-15T05:16:49.753Z,102028.22
2023-04-15T05:19:17.567Z,102019.66
2023-04-15T05:21:45.523Z,101853.13
2023-04-15T05:24:13.668Z,102029.91
2023-04-15T05:26:42.922Z,102041.06
2023-04-15T05:29:12.246Z,102027.53
2023-04-15T05:31:40.562Z,102043.88
2023-04-15T05:34:08.512Z,102043.31
2023-04-15T05:36:36.495Z,102040.84
2023-04-15T05:39:04.809Z,102049.63
2023-04-15T05:41:32.853Z,102047.25
2023-04-15T05:44:00.771Z,102060.34
2023-04-15T05:46:30.133Z,101975.41
2023-04-15T05:48:58.057Z,102051.31
2023-04-15T05:51:26.004Z,101994.59
2023-04-15T05:53:54.010Z,102029.88
2023-04-15T05:56:22.396Z,102060.66
2023-04-15T05:58:52.492Z,102069.59
2023-04-15T06:01:22.304Z,102060.41
2023-04-15T06:03:51.781Z,102059.84
2023-04-15T06:06:20.502Z,102068.88
2023-04-15T06:08:48.602Z,102046.63
2023-04-15T06:11:16.595Z,102024.31
2023-04-15T06:13:44.454Z,102058.13
2023-04-15T06:16:12.688Z,102065.97
2023-04-15T06:18:40.793Z,102071.41
2023-04-15T06:21:10.158Z,102076.13
2023-04-15T06:23:38.330Z,102067.41
2023-04-15T06:26:07.867Z,102091.69
2023-04-15T06:28:36.050Z,102090.28
2023-04-15T06:31:04.297Z,102056.44
2023-04-15T06:33:33.277Z,102085.69
2023-04-15T06:36:01.140Z,102086.13
2023-04-15T06:38:30.555Z,102043.97
2023-04-15T06:40:58.803Z,102083.56
2023-04-15T06:43:26.910Z,102092.69
2023-04-15T06:45:54.978Z,101973.06
2023-04-15T06:48:23.150Z,102066.19
2023-04-15T06:50:51.249Z,102085.84
2023-04-15T06:53:20.006Z,102039.28
2023-04-15T06:55:49.451Z,102088.53
2023-04-15T06:58:17.313Z,102096.63
2023-04-15T07:00:46.462Z,102027.72
2023-04-15T07:03:15.271Z,102098.84
2023-04-15T07:05:43.546Z,102109.25
2023-04-15T07:08:11.689Z,102097.16
2023-04-15T07:10:39.825Z,102098.09
2023-04-15T07:13:09.099Z,101929.81
2023-04-15T07:15:37.107Z,102051.00
2023-04-15T07:18:05.204Z,102076.31
2023-04-15T07:20:33.077Z,102107.28
2023-04-15T07:23:01.048Z,102094.88
2023-04-15T07:25:29.294Z,102099.75
2023-04-15T07:27:57.605Z,102076.88
2023-04-15T07:30:27.070Z,102105.00
2023-04-15T07:32:55.546Z,102061.81
2023-04-15T07:35:23.605Z,102103.03
2023-04-15T07:37:52.248Z,102104.34
2023-04-15T07:40:20.231Z,102108.03
2023-04-15T07:42:49.571Z,102074.44
2023-04-15T07:45:17.584Z,102070.63
2023-04-15T07:47:47.221Z,102091.25
2023-04-15T07:50:17.086Z,102031.16
2023-04-15T07:52:45.701Z,102110.94
2023-04-15T07:55:13.696Z,102111.16
2023-04-15T07:57:42.050Z,102113.44
2023-04-15T08:00:11.512Z,102110.25
2023-04-15T08:02:40.536Z,102051.47
2023-04-15T08:05:11.182Z,102121.81
2023-04-15T08:07:39.572Z,102117.53
2023-04-15T08:10:08.591Z,102114.88
2023-04-15T08:12:37.106Z,102114.81
2023-04-15T08:15:07.603Z,102109.69
2023-04-15T08:17:35.673Z,102111.88
2023-04-15T08:20:06.235Z,102117.22
2023-04-15T08:22:35.654Z,102099.22
2023-04-15T08:25:05.581Z,102116.47
2023-04-15T08:27:34.072Z,102115.63
2023-04-15T08:30:04.644Z,102113.38
2023-04-15T08:32:33.178Z,102109.94
2023-04-15T08:35:01.916Z,102110.94
2023-04-15T08:37:29.940Z,102116.66
2023-04-15T08:39:59.199Z,102106.41
2023-04-15T08:42:33.643Z,102037.75
2023-04-15T08:45:03.051Z,102113.22
2023-04-15T08:47:32.484Z,102104.75
2023-04-15T08:50:01.965Z,102109.34
2023-04-15T08:52:31.740Z,102116.41
2023-04-15T08:55:03.367Z,102109.88
2023-04-15T08:57:32.570Z,102115.44
2023-04-15T09:00:03.909Z,102114.69
2023-04-15T09:02:33.719Z,102121.13
2023-04-15T09:05:02.403Z,102109.97
2023-04-15T09:07:30.294Z,102123.34
2023-04-15T09:09:58.852Z,102118.03
2023-04-15T09:12:28.281Z,102112.91
2023-04-15T09:14:56.117Z,102107.78
2023-04-15T09:17:26.787Z,102118.00
2023-04-15T09:20:09.909Z,102113.19
2023-04-15T09:22:38.743Z,102078.47
2023-04-15T09:25:27.606Z,102118.31
2023-04-15T09:27:58.612Z,102108.47
2023-04-15T09:30:26.596Z,102110.00
2023-04-15T09:32:56.593Z,102120.09
2023-04-15T09:35:27.685Z,102129.94
2023-04-15T09:38:04.069Z,102124.81
2023-04-15T09:40:37.416Z,102124.16
2023-04-15T09:43:07.870Z,102132.53
2023-04-15T09:45:37.284Z,102123.22
2023-04-15T09:48:18.230Z,102131.56
2023-04-15T09:50:46.348Z,102134.16
2023-04-15T09:53:18.275Z,102126.13
2023-04-15T09:55:47.912Z,102130.56
2023-04-15T09:58:27.536Z,102110.63
2023-04-15T10:00:57.768Z,102139.06
2023-04-15T10:03:27.702Z,102147.88
2023-04-15T10:05:57.657Z,102143.06
2023-04-15T10:08:26.768Z,102080.75
2023-04-15T10:10:55.342Z,102144.31
2023-04-15T10:13:28.555Z,102119.69
2023-04-15T10:15:59.617Z,102141.34
2023-04-15T10:18:29.391Z,102003.97
2023-04-15T10:20:57.275Z,102047.78
2023-04-15T10:23:25.861Z,102149.72
2023-04-15T10:25:55.531Z,102154.31
2023-04-15T10:28:23.681Z,102146.13
2023-04-15T10:30:53.921Z,102153.47
2023-04-15T10:33:24.148Z,102149.03
2023-04-15T10:35:53.882Z,102152.22
2023-04-15T10:38:38.684Z,102151.19
2023-04-15T10:41:21.540Z,102150.41
2023-04-15T10:43:51.762Z,102149.69
2023-04-15T10:46:26.680Z,102155.88
2023-04-15T10:48:55.340Z,102148.00
2023-04-15T10:51:31.658Z,102149.44
2023-04-15T10:54:01.029Z,102134.25
2023-04-15T10:56:30.899Z,102137.16
2023-04-15T10:59:01.584Z,102149.91
2023-04-15T11:01:56.710Z,102151.66
2023-04-15T11:04:53.161Z,102152.75
2023-04-15T11:07:38.140Z,102152.91
2023-04-15T11:10:28.170Z,102162.91
2023-04-15T11:12:58.837Z,102147.84
2023-04-15T11:15:30.699Z,102143.38
2023-04-15T11:18:01.461Z,102167.44
2023-04-15T11:20:30.128Z,102172.81
2023-04-15T11:23:13.711Z,102164.97
2023-04-15T11:25:44.438Z,102171.16
2023-04-15T11:28:13.260Z,102177.28
2023-04-15T11:30:43.265Z,102180.03
2023-04-15T11:33:14.145Z,102187.19
2023-04-15T11:35:42.805Z,102168.41
2023-04-15T11:38:13.040Z,102178.28
2023-04-15T11:40:43.849Z,102191.84
2023-04-15T11:43:16.085Z,102187.44
2023-04-15T11:45:52.898Z,102187.34
2023-04-15T11:48:24.777Z,102187.06
2023-04-15T11:50:56.981Z,102194.88
2023-04-15T11:53:38.365Z,102199.78
2023-04-15T11:56:08.937Z,102188.84
2023-04-15T11:58:39.374Z,102168.94
2023-04-15T12:01:08.481Z,102193.34
2023-04-15T12:03:42.797Z,102195.16
2023-04-15T12:06:19.324Z,102194.41
2023-04-15T12:09:08.688Z,102201.91
2023-04-15T12:11:42.746Z,102176.09
2023-04-15T12:14:13.802Z,102177.00
2023-04-15T12:16:48.778Z,102198.59
2023-04-15T12:19:25.430Z,102185.78
2023-04-15T12:21:55.428Z,102204.09
2023-04-15T12:24:24.081Z,102195.22
2023-04-15T12:26:53.774Z,102192.72
2023-04-15T12:29:26.166Z,102221.31
2023-04-15T12:31:55.863Z,102206.41
2023-04-15T12:34:32.668Z,102216.66
2023-04-15T12:37:02.507Z,102224.75
2023-04-15T12:39:32.616Z,102198.13
2023-04-15T12:42:01.750Z,102220.63
2023-04-15T12:44:30.823Z,102216.25
2023-04-15T12:46:59.953Z,102209.16
2023-04-15T12:49:28.722Z,102213.59
2023-04-15T12:52:00.899Z,102177.28
2023-04-15T12:54:29.126Z,102206.38
2023-04-15T12:56:57.305Z,102211.59
2023-04-15T12:59:25.715Z,102169.03
2023-04-15T13:01:54.629Z,102202.56
2023-04-15T13:04:23.608Z,102207.69
2023-04-15T13:06:51.836Z,102150.59
2023-04-15T13:09:21.076Z,102209.66
2023-04-15T13:11:49.068Z,102207.97
2023-04-15T13:14:17.013Z,102209.41
2023-04-15T13:16:45.271Z,102215.25
2023-04-15T13:19:14.613Z,102209.22
2023-04-15T13:21:42.558Z,102213.13
2023-04-15T13:24:10.677Z,102200.81
2023-04-15T13:26:39.895Z,102201.81
2023-04-15T13:29:08.010Z,102219.63
2023-04-15T13:31:35.946Z,102215.16
2023-04-15T13:34:04.140Z,102219.75
2023-04-15T13:36:32.878Z,102227.88
2023-04-15T13:39:01.068Z,102225.31
2023-04-15T13:41:28.934Z,102205.59
2023-04-15T13:43:58.604Z,102220.13
2023-04-15T13:46:26.942Z,102230.06
2023-04-15T13:48:55.170Z,102188.22
2023-04-15T13:51:23.566Z,102223.97
2023-04-15T13:53:51.669Z,102153.47
2023-04-15T13:56:19.611Z,102207.94
2023-04-15T13:58:47.787Z,102226.69
2023-04-15T14:01:17.147Z,102223.16
2023-04-15T14:03:45.231Z,102201.75
2023-04-15T14:06:13.482Z,102162.53
2023-04-15T14:08:41.521Z,102225.81
2023-04-15T14:11:09.456Z,102225.81
2023-04-15T14:13:37.560Z,102225.81
2023-04-15T14:16:06.339Z,102222.25
2023-04-15T14:18:37.341Z,102183.03
2023-04-15T14:21:05.789Z,102219.53
2023-04-15T14:23:33.965Z,102178.56
2023-04-15T14:26:01.892Z,102230.28
2023-04-15T14:28:30.483Z,102226.69
2023-04-15T14:30:58.529Z,102208.84
2023-04-15T14:33:26.507Z,102210.66
2023-04-15T14:35:56.328Z,102214.16
2023-04-15T14:38:24.301Z,102227.47
2023-04-15T14:40:52.154Z,102230.16
2023-04-15T14:43:20.093Z,102226.72
2023-04-15T14:45:49.405Z,102207.97
2023-04-15T14:48:17.677Z,102180.34
2023-04-15T14:50:45.653Z,102240.09
2023-04-15T14:53:14.993Z,102237.38
2023-04-15T14:55:43.634Z,102235.59
2023-04-15T14:58:11.595Z,102226.69
2023-04-15T15:00:42.142Z,102246.28
2023-04-15T15:03:13.823Z,102234.69
2023-04-15T15:05:41.907Z,102227.41
2023-04-15T15:08:10.632Z,102236.31
2023-04-15T15:10:48.970Z,102159.56
2023-04-15T15:13:18.087Z,102237.88
2023-04-15T15:15:46.650Z,102217.94
2023-04-15T15:18:14.634Z,102250.47
2023-04-15T15:20:42.488Z,102250.84
2023-04-15T15:23:10.415Z,102246.22
2023-04-15T15:25:40.228Z,102196.22
2023-04-15T15:28:08.288Z,102249.59
2023-04-15T15:30:36.287Z,102269.19
2023-04-15T15:33:04.407Z,102109.56
2023-04-15T15:35:33.179Z,102255.06
2023-04-15T15:38:01.709Z,102249.22
2023-04-15T15:40:29.636Z,102115.94
2023-04-15T15:42:59.280Z,102254.88
2023-04-15T15:45:27.241Z,102246.41
2023-04-15T15:47:57.415Z,102228.09
2023-04-15T15:50:25.306Z,102106.56
2023-04-15T15:52:53.382Z,102223.88
2023-04-15T15:55:21.628Z,102238.41
2023-04-15T15:57:50.170Z,102263.56
2023-04-15T16:00:19.638Z,102258.00
2023-04-15T16:05:18.575Z,102263.78
2023-04-15T16:07:46.509Z,102263.44
2023-04-15T16:10:14.433Z,102267.81
2023-04-15T16:12:42.558Z,102268.66
2023-04-15T16:15:12.182Z,102276.75
2023-04-15T16:17:41.842Z,102250.41
2023-04-15T16:20:10.488Z,102278.69
2023-04-15T16:22:38.652Z,102238.66
2023-04-15T16:25:07.279Z,102277.03
2023-04-15T16:27:40.778Z,102288.69
2023-04-15T16:30:18.189Z,102270.69
2023-04-15T16:32:47.470Z,102285.38
2023-04-15T16:35:16.862Z,102300.06
2023-04-15T16:37:45.069Z,102292.53
2023-04-15T16:40:13.688Z,102292.69
2023-04-15T16:42:43.604Z,102299.59
2023-04-15T16:45:12.095Z,102299.44
2023-04-15T16:47:39.988Z,102280.00
2023-04-15T16:50:10.623Z,102298.53
2023-04-15T16:52:38.879Z,102301.06
2023-04-15T16:55:07.493Z,102300.16
2023-04-15T16:58:00.709Z,102293.34
2023-04-15T17:00:26.497Z,102314.56
2023-04-15T17:02:54.400Z,102318.56
2023-04-15T17:05:23.709Z,102315.41
2023-04-15T17:07:51.733Z,102307.97
2023-04-15T17:10:19.689Z,102305.59
2023-04-15T17:12:47.628Z,102313.78
2023-04-15T17:15:15.717Z,102322.13
2023-04-15T17:17:43.555Z,102323.84
2023-04-15T17:20:12.339Z,102326.28
2023-04-15T17:22:41.735Z,102242.00
2023-04-15T17:25:09.885Z,102333.38
2023-04-15T17:27:38.692Z,102330.63
2023-04-15T17:30:07.778Z,102327.91
2023-04-15T17:32:36.199Z,102327.84
2023-04-15T17:35:06.488Z,102313.75
2023-04-15T17:37:34.697Z,102333.41
2023-04-15T17:40:05.845Z,102157.31
2023-04-15T17:42:35.417Z,102336.72
2023-04-15T17:45:03.317Z,102332.78
2023-04-15T17:47:31.185Z,102330.84
2023-04-15T17:49:59.403Z,102312.63
2023-04-15T17:52:27.359Z,102341.03
2023-04-15T17:54:55.899Z,102350.28
2023-04-15T17:57:25.611Z,102351.69
2023-04-15T17:59:53.481Z,102352.09
2023-04-15T18:02:21.438Z,102348.91
2023-04-15T18:04:49.904Z,102352.72
2023-04-15T18:07:17.886Z,102333.63
2023-04-15T18:09:45.786Z,102356.13
2023-04-15T18:12:14.196Z,102346.38
2023-04-15T18:14:43.417Z,102355.50
2023-04-15T18:17:13.546Z,102345.38
2023-04-15T18:19:41.793Z,102366.63
2023-04-15T18:22:09.631Z,102339.03
2023-04-15T18:24:37.456Z,102272.28
2023-04-15T18:27:05.615Z,102357.56
2023-04-15T18:29:33.463Z,102355.56
2023-04-15T18:32:03.298Z,102358.97
2023-04-15T18:34:31.453Z,102359.56
2023-04-15T18:36:59.905Z,102378.09
2023-04-15T18:39:27.886Z,102367.13
2023-04-15T18:41:57.404Z,102363.31
2023-04-15T18:44:25.422Z,102371.81
2023-04-15T18:46:53.298Z,102344.41
2023-04-15T18:49:23.176Z,102375.91
2023-04-15T18:51:51.408Z,102367.69
2023-04-15T18:54:19.234Z,102373.59
2023-04-15T18:56:47.318Z,102267.19
2023-04-15T18:59:28.471Z,102282.31
2023-04-15T19:01:59.111Z,102356.25
2023-04-15T19:04:29.753Z,102374.00
2023-04-15T19:06:58.883Z,102322.13
2023-04-15T19:09:27.298Z,102377.97
2023-04-15T19:11:55.408Z,102379.34
2023-04-15T19:14:23.591Z,102401.66
2023-04-15T19:16:51.631Z,102379.72
2023-04-15T19:19:19.827Z,102384.38
2023-04-15T19:21:50.306Z,102391.81
2023-04-15T19:24:18.914Z,102383.78
2023-04-15T19:26:49.688Z,102384.16
2023-04-15T19:29:17.668Z,102385.41
2023-04-15T19:31:45.665Z,102336.47
2023-04-15T19:34:13.552Z,102387.78
2023-04-15T19:36:41.721Z,102393.69
2023-04-15T19:39:11.112Z,102389.16
2023-04-15T19:41:39.378Z,102389.72
2023-04-15T19:44:07.792Z,102387.91
2023-04-15T19:46:35.869Z,102391.19
2023-04-15T19:49:04.140Z,102390.06
2023-04-15T19:51:32.309Z,102389.16
2023-04-15T19:54:00.543Z,102398.56
2023-04-15T19:56:30.775Z,102387.03
2023-04-15T19:59:00.159Z,102380.69
2023-04-15T20:01:29.487Z,102383.06
2023-04-15T20:03:57.799Z,102390.53
2023-04-15T20:06:27.517Z,102382.38
2023-04-15T20:08:55.586Z,102382.06
2023-04-15T20:12:46.059Z,102363.19
2023-04-15T20:14:18.808Z,102338.88
2023-04-15T20:16:46.731Z,102378.91
2023-04-15T20:19:14.747Z,102321.81
2023-04-15T20:21:42.807Z,102380.03
2023-04-15T20:24:11.008Z,102295.81
2023-04-15T20:26:39.363Z,102372.00
2023-04-15T20:29:07.665Z,102378.78
2023-04-15T20:31:38.857Z,102372.69
2023-04-15T20:34:07.449Z,102380.25
2023-04-15T20:36:36.053Z,102340.00
2023-04-15T20:39:04.256Z,102380.72
2023-04-15T20:41:32.340Z,102232.25
2023-04-15T20:44:00.375Z,102387.47
2023-04-15T20:46:28.257Z,102311.59
2023-04-15T20:48:57.613Z,102321.66
2023-04-15T20:51:27.269Z,102387.38
2023-04-15T20:53:55.717Z,102352.97
2023-04-15T20:56:23.698Z,102382.50
2023-04-15T20:58:51.547Z,102381.00
2023-04-15T21:01:19.459Z,102322.44
2023-04-15T21:03:47.747Z,102378.28
2023-04-15T21:06:17.023Z,102377.03
2023-04-15T21:08:44.985Z,102376.81
2023-04-15T21:11:14.845Z,102305.09
2023-04-15T21:13:48.901Z,102384.38
2023-04-15T21:16:16.838Z,102377.25
2023-04-15T21:18:44.729Z,102382.31
2023-04-15T21:21:12.621Z,102383.91
2023-04-15T21:23:42.564Z,102377.00
2023-04-15T21:26:10.370Z,102388.06
2023-04-15T21:28:39.732Z,102377.75
2023-04-15T21:31:07.648Z,102389.53
2023-04-15T21:33:35.595Z,102385.91
2023-04-15T21:36:03.613Z,102389.28
2023-04-15T21:38:31.646Z,102310.31
2023-04-15T21:41:01.138Z,102380.91
2023-04-15T21:43:29.297Z,102388.47
2023-04-15T21:46:21.092Z,102390.81
2023-04-15T21:48:45.543Z,102369.09
2023-04-15T21:51:13.616Z,102381.09
2023-04-15T21:53:41.533Z,102363.19
2023-04-15T21:56:11.141Z,102386.84
2023-04-15T21:58:39.093Z,102386.59
2023-04-15T22:01:07.038Z,102387.16
2023-04-15T22:03:36.060Z,102397.28
2023-04-15T22:06:05.050Z,102383.94
2023-04-15T22:08:38.644Z,102380.75
2023-04-15T22:11:20.944Z,102399.84
2023-04-15T22:13:48.784Z,102372.66
2023-04-15T22:16:16.844Z,102394.94
2023-04-15T22:18:44.894Z,102400.91
2023-04-15T22:21:14.195Z,102398.31
2023-04-15T22:23:42.144Z,102374.66
2023-04-15T22:26:10.190Z,102365.47
2023-04-15T22:28:39.403Z,102405.19
2023-04-15T22:31:07.362Z,102404.97
2023-04-15T22:33:35.469Z,102412.50
2023-04-15T22:36:03.364Z,102407.97
2023-04-15T22:38:31.469Z,102340.06
2023-04-15T22:40:59.439Z,102404.09
2023-04-15T22:43:27.525Z,102401.13
2023-04-15T22:45:57.106Z,102248.66
2023-04-15T22:48:25.376Z,102408.03
2023-04-15T22:50:53.470Z,102405.97
2023-04-15T22:53:21.350Z,102408.31
2023-04-15T22:55:49.795Z,102375.75
2023-04-15T22:58:18.423Z,102414.03
2023-04-15T23:00:46.453Z,102391.91
2023-04-15T23:03:18.282Z,102423.13
2023-04-15T23:05:47.003Z,102419.50
2023-04-15T23:08:14.890Z,102387.03
2023-04-15T23:10:44.787Z,102407.72
2023-04-15T23:13:12.812Z,102414.34
2023-04-15T23:15:40.700Z,102418.13
2023-04-15T23:18:11.374Z,102393.41
2023-04-15T23:20:40.837Z,102396.91
2023-04-15T23:23:08.671Z,102417.00
2023-04-15T23:25:36.595Z,102408.19
2023-04-15T23:28:04.534Z,102407.94
2023-04-15T23:30:32.342Z,102411.97
2023-04-15T23:33:00.778Z,102416.66
2023-04-15T23:35:28.842Z,102414.19
2023-04-15T23:37:58.038Z,102399.06
2023-04-15T23:40:26.225Z,102414.09
2023-04-15T23:42:54.125Z,102415.25
2023-04-15T23:45:22.015Z,102413.69
2023-04-15T23:47:50.079Z,102418.25
2023-04-15T23:50:18.047Z,102416.03
2023-04-15T23:52:46.015Z,102390.56
2023-04-15T23:55:15.404Z,102409.47
2023-04-15T23:57:43.320Z,102384.72
